Time,TemperatureF,DewpointF,PressureIn,WindDirection,WindDirectionDegrees,WindSpeedMPH,WindSpeedGustMPH,Humidity,HourlyPrecipIn,Conditions,Clouds,dailyrainin,SoftwareType,DateUTC
2013-04-13 00:08:00,43.6,36.0,29.83,WNW,284,1.0,3.0,75,0.00,,,0.00,weatherlink.com 1.10,2013-04-13 04:08:00,
2013-04-13 00:23:00,43.5,36.0,29.83,WNW,302,1.0,2.0,75,0.00,,,0.00,weatherlink.com 1.10,2013-04-13 04:23:00,
2013-04-13 00:38:00,43.5,36.0,29.83,WNW,284,1.0,2.0,75,0.00,,,0.00,weatherlink.com 1.10,2013-04-13 04:38:00,
2013-04-13 00:53:00,43.3,36.0,29.84,WNW,295,2.0,3.0,76,0.00,,,0.00,weatherlink.com 1.10,2013-04-13 04:53:00,
2013-04-13 01:08:00,43.2,36.0,29.84,WNW,285,1.0,5.0,76,0.00,,,0.00,weatherlink.com 1.10,2013-04-13 05:08:00,
2013-04-13 01:23:00,43.1,36.0,29.84,WNW,300,1.0,4.0,76,0.00,,,0.00,weatherlink.com 1.10,2013-04-13 05:23:00,
2013-04-13 01:38:00,43.2,36.0,29.84,West,264,3.0,4.0,76,0.00,,,0.00,weatherlink.com 1.10,2013-04-13 05:38:00,
2013-04-13 01:53:00,43.3,36.0,29.84,West,280,2.0,4.0,75,0.00,,,0.00,weatherlink.com 1.10,2013-04-13 05:53:00,
2013-04-13 02:08:00,43.4,36.0,29.83,WNW,291,1.0,5.0,74,0.00,,,0.00,weatherlink.com 1.10,2013-04-13 06:08:00,
2013-04-13 02:23:00,43.5,35.0,29.83,WNW,300,1.0,7.0,73,0.00,,,0.00,weatherlink.com 1.10,2013-04-13 06:23:00,
2013-04-13 02:38:00,43.4,35.0,29.83,NW,315,2.0,6.0,73,0.00,,,0.00,weatherlink.com 1.10,2013-04-13 06:38:00,
2013-04-13 02:53:00,43.1,35.0,29.83,NW,311,3.0,6.0,74,0.00,,,0.00,weatherlink.com 1.10,2013-04-13 06:53:00,
2013-04-13 03:08:00,42.4,35.0,29.83,SSW,194,0.0,7.0,75,0.00,,,0.00,weatherlink.com 1.10,2013-04-13 07:08:00,
2013-04-13 03:23:00,41.5,34.0,29.84,NW,309,1.0,4.0,76,0.00,,,0.00,weatherlink.com 1.10,2013-04-13 07:23:00,
2013-04-13 03:38:00,41.3,34.0,29.84,WNW,288,0.0,5.0,75,0.00,,,0.00,weatherlink.com 1.10,2013-04-13 07:38:00,
2013-04-13 03:53:00,40.8,34.0,29.84,SW,228,1.0,1.0,76,0.00,,,0.00,weatherlink.com 1.10,2013-04-13 07:53:00,
2013-04-13 04:08:00,40.3,33.0,29.85,WSW,246,0.0,5.0,76,0.00,,,0.00,weatherlink.com 1.10,2013-04-13 08:08:00,
2013-04-13 04:23:00,39.7,33.0,29.85,West,273,0.0,2.0,77,0.00,,,0.00,weatherlink.com 1.10,2013-04-13 08:23:00,
2013-04-13 05:23:00,39.4,33.0,29.85,WNW,292,1.0,4.0,78,0.00,,,0.00,weatherlink.com 1.10,2013-04-13 09:23:00,
2013-04-13 05:53:00,38.4,32.0,29.85,WSW,249,0.0,3.0,79,0.00,,,0.00,weatherlink.com 1.10,2013-04-13 09:53:00,
2013-04-13 06:08:00,38.0,32.0,29.86,SW,221,0.0,1.0,80,0.00,,,0.00,weatherlink.com 1.10,2013-04-13 10:08:00,
2013-04-13 06:23:00,38.3,33.0,29.86,SW,221,0.0,4.0,80,0.00,,,0.00,weatherlink.com 1.10,2013-04-13 10:23:00,
2013-04-13 06:38:00,38.4,33.0,29.86,West,281,0.0,3.0,81,0.00,,,0.00,weatherlink.com 1.10,2013-04-13 10:38:00,
2013-04-13 07:09:00,39.3,34.0,29.87,West,259,0.0,1.0,80,0.00,,,0.00,weatherlink.com 1.10,2013-04-13 11:09:00,
2013-04-13 07:24:00,38.9,33.0,29.88,West,266,1.0,2.0,80,0.00,,,0.00,weatherlink.com 1.10,2013-04-13 11:24:00,
2013-04-13 07:39:00,39.1,34.0,29.89,West,266,0.0,0.0,81,0.00,,,0.00,weatherlink.com 1.10,2013-04-13 11:39:00,
2013-04-13 07:54:00,39.8,34.0,29.89,South,188,0.0,2.0,80,0.00,,,0.00,weatherlink.com 1.10,2013-04-13 11:54:00,
2013-04-13 08:24:00,40.6,34.0,29.90,South,176,0.0,4.0,78,0.00,,,0.00,weatherlink.com 1.10,2013-04-13 12:24:00,
2013-04-13 08:39:00,40.9,34.0,29.89,West,278,1.0,6.0,77,0.00,,,0.00,weatherlink.com 1.10,2013-04-13 12:39:00,
2013-04-13 08:54:00,41.2,35.0,29.90,SSW,210,3.0,4.0,78,0.00,,,0.00,weatherlink.com 1.10,2013-04-13 12:54:00,
2013-04-13 09:09:00,41.4,35.0,29.90,SSW,205,2.0,6.0,77,0.00,,,0.00,weatherlink.com 1.10,2013-04-13 13:09:00,
2013-04-13 09:39:00,42.1,35.0,29.90,West,269,5.0,9.0,75,0.00,,,0.00,weatherlink.com 1.10,2013-04-13 13:39:00,
2013-04-13 09:54:00,42.3,35.0,29.90,West,270,4.0,7.0,75,0.00,,,0.00,weatherlink.com 1.10,2013-04-13 13:54:00,
2013-04-13 10:09:00,42.4,35.0,29.90,NW,316,1.0,11.0,74,0.00,,,0.00,weatherlink.com 1.10,2013-04-13 14:09:00,
2013-04-13 10:24:00,42.8,35.0,29.90,West,281,0.0,8.0,73,0.00,,,0.00,weatherlink.com 1.10,2013-04-13 14:24:00,
2013-04-13 10:54:00,43.6,34.0,29.90,West,269,1.0,11.0,70,0.00,,,0.00,weatherlink.com 1.10,2013-04-13 14:54:00,
2013-04-13 11:09:00,43.5,34.0,29.90,WSW,245,1.0,9.0,69,0.00,,,0.00,weatherlink.com 1.10,2013-04-13 15:09:00,
2013-04-13 11:24:00,44.1,34.0,29.91,SW,219,2.0,12.0,68,0.00,,,0.00,weatherlink.com 1.10,2013-04-13 15:24:00,
2013-04-13 11:39:00,44.8,34.0,29.91,West,259,2.0,10.0,66,0.00,,,0.00,weatherlink.com 1.10,2013-04-13 15:39:00,
2013-04-13 11:54:00,44.5,33.0,29.91,WSW,248,2.0,13.0,65,0.00,,,0.00,weatherlink.com 1.10,2013-04-13 15:54:00,
2013-04-13 12:09:00,44.7,34.0,29.91,NW,304,0.0,7.0,66,0.00,,,0.00,weatherlink.com 1.10,2013-04-13 16:09:00,
2013-04-13 12:39:00,45.3,33.0,29.91,NNW,346,2.0,10.0,62,0.00,,,0.00,weatherlink.com 1.10,2013-04-13 16:39:00,
2013-04-13 12:54:00,45.9,33.0,29.90,WNW,283,1.0,7.0,61,0.00,,,0.00,weatherlink.com 1.10,2013-04-13 16:54:00,
2013-04-13 13:09:00,47.3,34.0,29.90,SW,232,2.0,6.0,60,0.00,,,0.00,weatherlink.com 1.10,2013-04-13 17:09:00,
2013-04-13 13:24:00,47.1,33.0,29.91,South,180,2.0,8.0,58,0.00,,,0.00,weatherlink.com 1.10,2013-04-13 17:24:00,
2013-04-13 13:39:00,47.2,32.0,29.91,WNW,297,1.0,11.0,57,0.00,,,0.00,weatherlink.com 1.10,2013-04-13 17:39:00,
2013-04-13 14:09:00,48.1,33.0,29.91,WNW,283,8.0,14.0,56,0.00,,,0.00,weatherlink.com 1.10,2013-04-13 18:09:00,
2013-04-13 14:39:00,50.5,34.0,29.89,WSW,253,9.0,12.0,54,0.00,,,0.00,weatherlink.com 1.10,2013-04-13 18:39:00,
2013-04-13 14:54:00,49.9,34.0,29.89,NW,311,0.0,10.0,55,0.00,,,0.00,weatherlink.com 1.10,2013-04-13 18:54:00,
2013-04-13 15:09:00,51.6,34.0,29.88,ESE,122,0.0,6.0,52,0.00,,,0.00,weatherlink.com 1.10,2013-04-13 19:09:00,
2013-04-13 15:24:00,51.5,34.0,29.88,West,277,3.0,9.0,52,0.00,,,0.00,weatherlink.com 1.10,2013-04-13 19:24:00,
2013-04-13 15:40:00,52.7,35.0,29.88,WNW,301,4.0,7.0,51,0.00,,,0.00,weatherlink.com 1.10,2013-04-13 19:40:00,
2013-04-13 15:55:00,51.2,34.0,29.88,WNW,287,4.0,8.0,52,0.00,,,0.00,weatherlink.com 1.10,2013-04-13 19:55:00,
2013-04-13 16:10:00,51.9,34.0,29.88,West,277,2.0,9.0,51,0.00,,,0.00,weatherlink.com 1.10,2013-04-13 20:10:00,
2013-04-13 16:25:00,51.7,35.0,29.87,West,270,0.0,11.0,54,0.00,,,0.00,weatherlink.com 1.10,2013-04-13 20:25:00,
2013-04-13 16:40:00,51.1,35.0,29.88,NW,305,2.0,9.0,54,0.00,,,0.00,weatherlink.com 1.10,2013-04-13 20:40:00,
2013-04-13 16:55:00,52.3,35.0,29.88,NW,312,1.0,12.0,53,0.00,,,0.00,weatherlink.com 1.10,2013-04-13 20:55:00,
2013-04-13 17:10:00,51.8,34.0,29.88,WNW,288,4.0,6.0,52,0.00,,,0.00,weatherlink.com 1.10,2013-04-13 21:10:00,
2013-04-13 17:25:00,52.6,35.0,29.88,WSW,239,9.0,11.0,52,0.00,,,0.00,weatherlink.com 1.10,2013-04-13 21:25:00,
2013-04-13 17:40:00,51.5,35.0,29.89,WNW,292,2.0,9.0,54,0.00,,,0.00,weatherlink.com 1.10,2013-04-13 21:40:00,
2013-04-13 17:55:00,51.6,35.0,29.89,WNW,294,6.0,12.0,54,0.00,,,0.00,weatherlink.com 1.10,2013-04-13 21:55:00,
2013-04-13 18:10:00,51.4,35.0,29.90,WSW,246,6.0,9.0,54,0.00,,,0.00,weatherlink.com 1.10,2013-04-13 22:10:00,
2013-04-13 18:25:00,50.4,35.0,29.91,NW,312,0.0,9.0,56,0.00,,,0.00,weatherlink.com 1.10,2013-04-13 22:25:00,
2013-04-13 18:40:00,49.8,35.0,29.91,WNW,286,7.0,9.0,57,0.00,,,0.00,weatherlink.com 1.10,2013-04-13 22:40:00,
2013-04-13 18:55:00,49.5,35.0,29.92,NW,304,5.0,9.0,58,0.00,,,0.00,weatherlink.com 1.10,2013-04-13 22:55:00,
2013-04-13 19:10:00,49.2,35.0,29.92,NW,308,2.0,8.0,58,0.00,,,0.00,weatherlink.com 1.10,2013-04-13 23:10:00,
2013-04-13 19:25:00,48.8,34.0,29.92,WNW,297,5.0,10.0,58,0.00,,,0.00,weatherlink.com 1.10,2013-04-13 23:25:00,
2013-04-13 19:40:00,48.1,33.0,29.93,WNW,293,5.0,11.0,57,0.00,,,0.00,weatherlink.com 1.10,2013-04-13 23:40:00,
2013-04-13 19:55:00,47.9,34.0,29.92,NW,308,1.0,7.0,58,0.00,,,0.00,weatherlink.com 1.10,2013-04-13 23:55:00,
2013-04-13 20:10:00,47.8,33.0,29.92,WNW,288,1.0,9.0,56,0.00,,,0.00,weatherlink.com 1.10,2013-04-14 00:10:00,
2013-04-13 20:25:00,47.2,34.0,29.93,NW,304,1.0,3.0,60,0.00,,,0.00,weatherlink.com 1.10,2013-04-14 00:25:00,
2013-04-13 20:40:00,46.1,34.0,29.93,WNW,285,0.0,2.0,63,0.00,,,0.00,weatherlink.com 1.10,2013-04-14 00:40:00,
2013-04-13 20:55:00,45.4,34.0,29.93,West,277,0.0,1.0,64,0.00,,,0.00,weatherlink.com 1.10,2013-04-14 00:55:00,
2013-04-13 21:10:00,44.6,34.0,29.93,WNW,283,0.0,1.0,67,0.00,,,0.00,weatherlink.com 1.10,2013-04-14 01:10:00,
2013-04-13 21:25:00,43.9,34.0,29.94,West,271,0.0,1.0,69,0.00,,,0.00,weatherlink.com 1.10,2013-04-14 01:25:00,
2013-04-13 21:40:00,43.2,34.0,29.94,West,271,0.0,1.0,70,0.00,,,0.00,weatherlink.com 1.10,2013-04-14 01:40:00,
2013-04-13 21:55:00,42.7,35.0,29.94,West,273,0.0,1.0,73,0.00,,,0.00,weatherlink.com 1.10,2013-04-14 01:55:00,
2013-04-13 22:10:00,42.4,35.0,29.95,West,273,0.0,0.0,75,0.00,,,0.00,weatherlink.com 1.10,2013-04-14 02:10:00,
2013-04-13 22:25:00,41.1,34.0,29.95,West,278,0.0,1.0,75,0.00,,,0.00,weatherlink.com 1.10,2013-04-14 02:25:00,
2013-04-13 22:40:00,40.3,34.0,29.95,WNW,295,2.0,2.0,77,0.00,,,0.00,weatherlink.com 1.10,2013-04-14 02:40:00,
2013-04-13 22:55:00,43.0,34.0,29.96,West,281,2.0,6.0,71,0.00,,,0.00,weatherlink.com 1.10,2013-04-14 02:55:00,
2013-04-13 23:10:00,43.7,34.0,29.96,WNW,295,3.0,8.0,70,0.00,,,0.00,weatherlink.com 1.10,2013-04-14 03:10:00,
2013-04-13 23:25:00,43.1,34.0,29.96,WNW,298,3.0,5.0,71,0.00,,,0.00,weatherlink.com 1.10,2013-04-14 03:25:00,
2013-04-13 23:40:00,42.9,35.0,29.97,WNW,293,1.0,5.0,73,0.00,,,0.00,weatherlink.com 1.10,2013-04-14 03:40:00,
2013-04-13 23:55:00,42.7,35.0,29.98,WNW,289,3.0,5.0,73,0.00,,,0.00,weatherlink.com 1.10,2013-04-14 03:55:00,